Antofagasta de la Sierra, Argentina
Current Conditions -  °F | °C
As of 11:00 PM on Saturday 20 Dec 2014 (Local Time) from SASA Reporting Station
Clear Clear  
Wind Chill: 73°   Ceiling: Unl
Heat Index: 73°   Visibility: 6mi
Dew Point: 64°   Wind: 2mph
Humidity: 73%   Direction: 360°N
Pressure: 29.65"   Gusts: NA
Location:  26.07°S, 67.42°W
Report Text: SASA 210200Z 36002KT CAVOK 23/18 Q1004
Loading
Personal Weather Stations






























Interactive Weather Map New forecast layout! Learn more

10-Day Weather Forecast

Advertisements
Track Severe Weather on mobile